Date,TemperatureHighF,TemperatureAvgF,TemperatureLowF,DewpointHighF,DewpointAvgF,DewpointLowF,HumidityHigh,HumidityAvg,HumidityLow,PressureMaxIn,PressureMinIn,WindSpeedMaxMPH,WindSpeedAvgMPH,GustSpeedMaxMPH,PrecipitationSumIn
2013-1-1,24,20,10,15,9,-1,72,62,55,29.41,29.29,9,3,9,0.00
2013-1-2,27,18,8,14,6,-3,67,60,57,29.38,29.29,14,3,14,0.00
2013-1-3,33,26,17,25,17,7,78,68,59,29.50,29.29,15,4,15,0.00
2013-1-4,35,24,14,22,14,4,72,65,57,29.47,29.41,18,4,18,0.00
2013-1-5,36,30,21,32,24,14,88,77,70,29.41,29.17,16,4,16,0.08
2013-1-6,36,28,20,32,20,14,85,72,65,29.50,29.14,17,4,17,0.00
2013-1-7,34,26,19,27,19,13,79,77,73,29.50,29.41,17,4,17,0.00
2013-1-8,44,38,28,34,30,22,79,73,67,29.32,29.23,12,4,12,0.00
2013-1-9,50,39,30,35,29,22,78,66,47,29.65,29.23,13,3,13,0.00
2013-1-10,50,38,29,49,32,21,97,78,58,29.62,28.97,18,4,18,0.00
2013-1-11,56,51,48,55,51,48,98,98,96,29.00,28.88,18,6,18,0.00
2013-1-12,52,42,29,50,38,24,98,83,72,29.14,28.94,12,4,12,0.00
2013-1-13,29,22,16,25,15,7,85,76,68,29.44,29.09,12,4,12,0.00
2013-1-14,25,19,14,16,11,7,75,71,61,29.59,29.44,6,2,6,0.00
2013-1-15,30,21,14,18,13,7,76,71,59,29.56,29.29,6,0,6,0.00
2013-1-16,36,28,16,26,19,10,77,69,58,29.29,29.09,22,4,22,0.00
2013-1-17,36,30,23,28,19,12,78,64,52,29.59,29.26,13,3,13,0.00
2013-1-18,43,34,23,31,23,13,71,65,59,29.59,29.17,20,6,20,0.00
2013-1-19,52,43,33,36,30,19,71,61,52,29.26,29.00,24,7,24,0.00
2013-1-20,33,22,17,19,7,3,57,53,48,29.47,29.26,19,5,19,0.00
2013-1-21,17,11,6,5,-3,-11,58,52,45,29.50,29.35,19,8,19,0.00
2013-1-22,17,11,4,0,-6,-13,49,46,45,29.56,29.47,13,4,13,0.00
2013-1-23,33,23,15,15,6,-1,51,48,46,29.50,29.26,13,4,13,0.00
2013-1-24,24,17,8,6,1,-7,54,48,44,29.74,29.44,13,4,13,0.00
2013-1-25,36,28,22,18,12,4,57,50,45,29.44,29.17,14,5,14,0.00
2013-1-26,32,24,14,13,8,1,54,49,44,29.56,29.38,8,2,8,0.00
2013-1-27,43,33,27,41,23,12,93,69,51,29.50,29.09,13,4,13,0.00
2013-1-28,56,50,43,56,49,41,98,97,93,29.12,28.97,15,3,15,0.00
2013-1-29,64,58,52,62,57,51,98,97,88,28.97,28.61,20,5,20,0.00
2013-1-30,52,35,20,51,32,13,98,92,74,28.97,28.50,24,6,24,0.00
2013-1-31,23,16,6,18,8,-4,81,69,60,29.44,28.97,23,8,23,0.00
2013-2-1,21,13,4,16,2,-6,78,63,58,29.56,29.32,18,6,18,0.00
2013-2-2,29,23,18,24,17,10,84,77,69,29.32,29.17,14,4,14,0.00
2013-2-3,29,24,19,20,16,12,86,71,57,29.26,29.12,20,4,20,0.00
2013-2-4,37,29,23,29,22,16,78,74,69,29.17,28.97,14,4,14,0.00
2013-2-5,42,31,21,31,24,15,82,76,65,29.26,29.00,16,4,16,0.00
2013-2-6,44,36,25,33,28,19,81,73,64,29.38,29.23,13,3,13,0.00
2013-2-7,39,36,34,37,33,29,93,87,77,29.23,29.03,12,3,12,0.00
2013-2-8,34,30,26,32,24,20,90,79,73,29.53,29.17,13,4,13,0.00
2013-2-9,37,33,28,29,26,22,79,76,69,29.53,29.20,16,4,16,0.00
2013-2-10,48,42,35,47,39,29,96,89,64,29.20,28.70,24,7,24,0.00
2013-2-11,42,35,30,33,23,20,69,60,53,29.26,28.82,30,10,30,0.00
2013-2-12,40,32,27,26,22,19,75,67,55,29.29,29.09,9,2,9,0.00
2013-2-13,47,37,26,32,27,20,80,67,52,29.09,28.94,12,3,12,0.00
2013-2-14,42,38,34,31,28,26,78,69,58,29.17,28.88,18,5,18,0.00
2013-2-15,35,30,23,28,17,9,77,58,44,29.38,29.17,15,5,15,0.00
2013-2-16,31,23,16,13,8,3,56,52,46,29.38,29.29,15,4,15,0.00
2013-2-17,38,26,13,21,12,1,60,54,49,29.35,29.09,14,4,14,0.00
2013-2-18,53,40,26,44,31,18,89,69,56,29.09,28.67,27,8,27,0.00
2013-2-19,26,20,15,17,8,3,71,58,52,29.41,28.94,30,11,30,0.00
2013-2-20,26,17,8,11,4,-5,64,56,51,29.53,29.41,11,4,11,0.00
2013-2-21,30,24,16,24,16,6,89,72,63,29.50,29.06,21,6,21,0.00
2013-2-22,35,31,27,31,26,20,91,83,74,29.14,28.94,15,4,15,0.00
2013-2-23,34,27,21,22,17,13,74,66,59,29.17,29.12,12,4,12,0.00
2013-2-24,39,29,18,25,19,11,76,68,54,29.29,29.14,7,1,7,0.00
2013-2-25,45,35,25,32,27,19,80,73,59,29.29,29.03,17,4,17,0.00
2013-2-26,35,34,32,32,31,26,97,90,70,29.03,28.64,24,6,24,0.00
2013-2-27,35,33,31,32,31,30,97,92,87,28.97,28.76,10,2,10,0.00
2013-2-28,37,34,32,32,31,29,91,87,79,29.23,28.97,10,3,10,0.00
2013-3-1,33,29,25,29,22,19,87,77,68,29.35,29.23,11,4,11,0.00
2013-3-2,34,26,17,20,15,7,77,63,53,29.38,29.32,12,3,12,0.00
2013-3-3,38,24,13,20,12,4,72,58,48,29.35,29.23,8,2,8,0.00
2013-3-4,37,32,26,27,21,11,75,65,53,29.26,29.06,17,5,17,0.00
2013-3-5,35,32,29,31,28,25,88,85,75,29.20,29.00,15,4,15,0.00
2013-3-6,34,30,27,26,23,20,86,75,67,29.50,29.20,13,5,13,0.00
2013-3-7,38,32,27,26,23,20,77,70,57,29.56,29.47,10,2,10,0.00
2013-3-8,46,35,25,33,27,19,78,73,55,29.59,29.38,14,3,14,0.00
2013-3-9,48,42,36,41,35,29,86,78,73,29.38,28.97,15,4,15,0.00
2013-3-10,52,49,44,51,47,40,98,95,81,28.97,28.76,13,3,13,0.00
2013-3-11,49,37,32,48,37,30,98,98,96,29.09,28.79,19,6,19,0.00
2013-3-12,42,33,26,34,27,17,97,80,67,29.29,29.09,22,6,22,0.00
2013-3-13,40,31,24,24,18,15,75,60,49,29.50,29.26,15,5,15,0.00
2013-3-14,47,34,24,30,23,14,75,64,51,29.50,29.26,15,3,15,0.00
2013-3-15,54,43,31,42,34,25,81,72,58,29.26,28.85,10,2,10,0.00
2013-3-16,45,37,32,40,31,25,90,78,61,29.29,28.85,12,4,12,0.00
2013-3-17,38,33,30,27,23,21,74,67,57,29.32,29.09,15,6,15,0.00
2013-3-18,40,33,26,36,27,12,92,79,55,29.09,28.85,20,6,20,0.00
2013-3-19,43,30,20,21,13,7,59,49,40,29.32,29.09,20,7,20,0.00
2013-3-20,35,26,18,14,8,2,55,47,40,29.32,29.23,23,7,23,0.00
2013-3-21,42,26,15,20,9,1,55,47,41,29.26,29.17,11,2,11,0.00
2013-3-22,49,34,20,26,15,7,60,48,39,29.23,29.14,12,2,12,0.00
2013-3-23,51,38,31,28,21,17,57,49,41,29.26,29.12,13,4,13,0.00
2013-3-24,33,32,30,29,26,19,89,80,57,29.14,28.82,14,5,14,0.00
2013-3-25,38,33,29,28,26,22,88,75,64,29.29,28.94,14,5,14,0.00
2013-3-26,40,36,32,26,24,23,70,63,53,29.44,29.29,12,4,12,0.00
2013-3-27,48,37,30,28,23,19,70,57,46,29.50,29.44,9,2,9,0.00
2013-3-28,54,39,26,34,25,18,73,59,46,29.53,29.44,8,1,8,0.00
2013-3-29,60,46,36,36,30,26,68,54,39,29.44,29.38,9,2,9,0.00
2013-3-30,58,47,35,41,34,25,76,61,51,29.38,29.09,15,4,15,0.00
2013-3-31,63,52,41,47,38,23,86,62,39,29.12,28.97,20,6,20,0.00
2013-4-1,50,38,31,25,19,13,59,46,38,29.38,29.12,14,5,14,0.00
2013-4-2,53,38,25,26,17,11,55,43,29,29.47,29.38,16,3,16,0.00
2013-4-3,53,40,28,24,16,11,48,39,27,29.59,29.44,12,3,12,0.00
2013-4-4,62,46,30,34,22,12,52,39,29,29.44,29.20,10,2,10,0.00
2013-4-5,61,49,38,33,26,18,57,42,29,29.35,29.20,14,4,14,0.00
2013-4-6,73,56,42,53,34,19,93,45,33,29.26,28.85,24,7,24,0.00
2013-4-7,71,58,44,50,42,36,87,59,39,29.12,28.94,14,3,14,0.00
2013-4-8,70,60,56,57,51,36,88,74,47,29.06,28.82,18,6,18,0.00
2013-4-9,80,68,54,64,58,46,87,71,51,29.09,29.00,27,5,27,0.00
2013-4-10,54,46,41,47,44,38,98,90,73,29.09,28.91,21,6,21,0.00
2013-4-11,52,46,39,51,44,32,98,92,75,28.91,28.76,19,5,19,0.00
2013-4-12,44,40,38,38,33,30,85,75,64,29.09,28.82,18,6,18,0.00
2013-4-13,56,45,36,36,30,23,72,56,45,29.17,29.09,19,6,19,0.00
2013-4-14,78,60,46,54,44,32,73,56,40,29.11,28.82,17,6,19,0.00
2013-4-15,63,57,46,57,51,41,90,82,56,29.17,28.88,18,4,18,0.00
2013-4-16,57,48,43,43,40,36,87,73,50,29.38,29.12,13,3,13,0.00
2013-4-17,57,49,45,56,44,35,98,83,68,29.38,28.91,19,6,19,0.00
2013-4-18,62,54,39,62,54,36,98,97,89,28.91,28.64,26,6,26,0.00
2013-4-19,42,39,36,37,31,26,93,74,62,29.17,28.79,25,8,25,0.00
2013-4-20,56,42,32,37,28,23,75,57,44,29.53,29.17,15,3,15,0.00
2013-4-21,61,48,36,41,32,25,63,54,46,29.59,29.44,16,4,16,0.00
2013-4-22,72,57,42,47,38,31,64,50,37,29.47,29.20,13,4,13,0.00
2013-4-23,58,48,39,48,43,38,98,83,55,29.23,29.09,12,3,12,0.00
2013-4-24,52,44,37,49,39,30,98,84,54,29.32,29.14,15,4,15,0.00
2013-4-25,60,48,41,37,31,27,71,51,38,29.47,29.29,21,5,21,0.00
2013-4-26,69,55,42,48,38,27,70,54,46,29.47,29.41,18,5,18,0.00
2013-4-27,66,56,45,50,46,40,89,70,45,29.47,29.14,13,2,13,0.00
2013-4-28,69,59,53,58,53,49,95,81,59,29.14,29.03,9,2,9,0.00
2013-4-29,77,64,48,61,54,44,90,73,56,29.09,28.94,16,4,16,0.00
2013-4-30,87,72,60,66,58,51,89,63,37,29.14,28.97,20,6,20,0.00
2013-5-1,87,73,60,62,55,49,82,56,36,29.32,29.14,13,2,13,0.00
2013-5-2,72,63,50,60,53,45,85,71,59,29.35,29.26,10,2,10,0.00
2013-5-3,63,53,44,62,51,42,97,93,84,29.29,29.00,17,4,17,0.00
2013-5-4,67,61,56,61,57,53,96,88,72,29.20,29.03,11,3,11,0.00
2013-5-5,74,62,54,58,53,47,95,74,42,29.20,29.09,15,3,15,0.00
2013-5-6,78,70,58,54,45,36,76,43,32,29.20,29.14,12,4,12,0.00
2013-5-7,82,68,52,48,42,35,62,40,30,29.23,29.14,8,1,8,0.00
2013-5-8,84,70,53,55,48,41,74,48,31,29.23,29.14,8,1,8,0.00
2013-5-9,72,65,62,63,58,47,93,79,50,29.17,29.00,12,2,12,0.00
2013-5-10,63,57,52,61,53,47,94,87,80,29.17,29.00,10,3,10,0.00
2013-5-11,66,56,47,54,40,25,87,59,37,29.26,29.09,23,4,23,0.00
2013-5-12,62,51,39,34,29,24,56,43,35,29.32,29.26,16,3,16,0.00
2013-5-13,71,57,37,42,36,26,71,46,33,29.35,29.20,13,2,13,0.00
2013-5-14,90,73,54,64,51,36,61,47,39,29.20,28.91,13,5,13,0.00
2013-5-15,83,76,67,60,54,50,59,47,38,29.09,28.97,14,3,14,0.00
2013-5-16,86,77,66,63,57,48,76,51,38,29.14,29.06,13,2,13,0.00
2013-5-17,82,68,61,65,58,55,82,70,44,29.20,29.11,12,1,12,0.00
2013-5-18,84,73,65,68,63,60,91,74,53,29.23,29.09,9,1,9,0.00
2013-5-19,89,78,64,73,67,60,90,71,53,29.14,28.94,13,3,13,0.00
2013-5-20,84,74,64,69,64,60,98,73,46,29.06,28.91,30,5,30,0.00
2013-5-21,84,72,62,70,65,62,98,80,57,28.97,28.88,17,4,17,0.00
2013-5-22,75,68,62,66,60,54,95,78,57,29.00,28.85,13,4,13,0.00
2013-5-23,64,59,51,58,53,46,92,80,66,29.44,29.00,13,3,13,0.00
2013-5-24,67,55,40,46,40,35,85,59,40,29.56,29.44,11,3,11,0.00
2013-5-25,55,51,50,50,42,32,90,71,50,29.56,29.38,15,3,15,0.00
2013-5-26,65,57,50,60,53,47,95,87,80,29.41,29.23,13,3,13,0.00
2013-5-27,72,64,58,68,62,57,97,94,86,29.26,29.00,12,2,12,0.00
2013-5-28,78,69,64,73,67,62,97,92,81,29.09,28.97,20,4,20,0.00
2013-5-29,88,75,63,76,68,62,98,82,64,29.14,29.06,20,4,20,0.00
2013-5-30,87,75,64,74,67,59,96,79,63,29.12,28.97,21,5,21,0.00
2013-5-31,76,70,64,72,67,62,97,92,81,29.09,28.94,15,3,15,0.00
2013-6-1,74,67,62,70,65,61,98,94,86,29.03,28.91,17,4,17,0.00
2013-6-2,65,61,56,61,57,49,98,86,77,29.23,29.00,12,3,12,0.00
2013-6-3,69,61,49,57,49,45,93,68,48,29.32,29.20,11,2,11,0.00
2013-6-4,75,65,53,54,51,45,80,61,43,29.32,29.23,10,2,10,0.00
2013-6-5,80,70,58,62,56,52,83,63,44,29.26,29.09,8,1,8,0.00
2013-6-6,77,66,59,62,56,50,84,70,60,29.12,29.06,8,2,8,0.00
2013-6-7,76,66,55,56,52,48,79,61,47,29.12,29.09,9,2,9,0.00
2013-6-8,80,69,53,56,50,40,70,53,41,29.17,29.12,8,1,8,0.00
2013-6-9,83,72,63,63,58,53,82,64,44,29.17,29.00,16,3,16,0.00
2013-6-10,80,71,62,67,61,57,90,73,51,29.12,28.97,9,2,9,0.00
2013-6-11,87,75,60,73,66,56,90,74,55,29.14,29.03,10,1,10,0.00
2013-6-12,95,77,69,78,71,67,93,81,46,29.09,28.85,18,2,18,0.00
2013-6-13,85,76,67,71,59,54,83,59,40,29.20,28.91,15,3,15,0.00
2013-6-14,82,71,59,58,54,50,76,56,40,29.32,29.17,11,2,11,0.00
2013-6-15,79,72,66,69,63,53,97,73,60,29.26,29.09,17,3,17,0.33
2013-6-16,85,74,65,74,69,64,98,85,66,29.17,29.09,9,2,9,0.00
2013-6-17,89,78,64,73,65,61,94,68,41,29.17,29.09,8,1,8,0.00
2013-6-18,84,74,66,64,59,52,90,63,44,29.23,29.09,10,3,10,0.00
2013-6-19,86,73,58,63,55,47,71,54,39,29.29,29.23,8,2,8,0.00
2013-6-20,92,80,66,71,62,53,81,55,39,29.32,29.26,11,2,11,0.00
2013-6-21,93,77,70,74,67,59,87,72,51,29.32,29.17,18,3,18,0.00
2013-6-22,90,77,68,79,71,64,90,81,68,29.26,29.17,11,2,11,0.00
2013-6-23,93,76,68,77,69,64,91,81,58,29.23,29.12,16,3,16,0.00
2013-6-24,90,74,67,80,69,65,96,86,64,29.32,29.09,23,2,23,0.58
2013-6-25,88,75,71,79,72,67,95,90,67,29.15,29.03,17,3,17,0.00
2013-6-26,87,77,69,80,72,68,97,86,70,29.06,28.94,13,3,13,0.29
2013-6-27,92,81,72,79,71,65,95,73,52,29.09,28.97,13,3,13,0.29
2013-6-28,87,78,69,70,62,56,82,60,40,29.03,28.88,14,4,14,0.29
2013-6-29,77,70,65,68,63,59,86,79,65,28.97,28.85,10,2,10,0.04
2013-6-30,80,70,62,65,59,49,88,70,53,29.17,28.97,17,3,17,0.00
2013-7-1,80,70,61,55,50,46,65,48,36,29.23,29.14,16,4,16,0.00
2013-7-2,75,67,61,58,52,48,72,58,45,29.26,29.20,11,3,11,0.00
2013-7-3,80,69,60,60,55,50,82,64,40,29.26,29.20,8,1,8,0.00
2013-7-4,86,75,61,68,60,54,85,62,45,29.29,29.20,10,2,10,0.00
2013-7-5,88,76,64,71,62,57,89,63,40,29.29,29.20,11,2,11,0.00
2013-7-6,89,77,65,73,66,60,91,72,49,29.26,29.17,9,1,9,0.00
2013-7-7,93,81,67,75,69,62,84,69,50,29.23,29.17,13,3,13,0.00
2013-7-8,87,79,73,78,72,68,91,81,67,29.26,29.17,16,2,16,0.21
2013-7-9,91,82,76,82,76,73,92,83,72,29.23,29.09,8,2,8,0.00
2013-7-10,91,80,70,77,72,59,87,76,49,29.23,29.09,12,2,12,0.00
2013-7-11,84,74,63,67,58,51,87,60,40,29.29,29.23,10,2,10,0.00
2013-7-12,87,73,60,61,54,51,77,53,34,29.35,29.26,11,2,11,0.00
2013-7-13,86,75,62,64,59,53,81,58,40,29.32,29.26,9,2,9,0.00
2013-7-14,91,80,67,72,67,61,85,65,47,29.38,29.29,9,2,9,0.00
2013-7-15,92,81,72,77,72,68,89,75,59,29.44,29.38,8,1,8,0.00
2013-7-16,94,84,73,79,74,70,93,73,52,29.53,29.44,9,2,9,0.00
2013-7-17,93,84,73,78,74,70,90,72,55,29.53,29.38,6,1,6,0.00
2013-7-18,99,86,74,80,75,71,92,70,49,29.41,29.20,11,2,11,0.00
2013-7-19,99,87,76,78,72,66,86,63,41,29.20,29.03,16,3,16,0.00
2013-7-20,91,82,72,72,66,60,80,61,40,29.14,29.06,10,2,10,0.00
2013-7-21,83,76,68,74,69,62,92,78,66,29.14,29.06,6,1,6,0.00
2013-7-22,92,80,67,75,70,65,94,75,52,29.09,28.97,10,2,10,0.16
2013-7-23,87,75,66,72,65,58,92,73,52,29.14,28.97,10,2,10,0.09
2013-7-24,79,69,59,62,55,51,86,62,43,29.26,29.14,10,3,10,0.00
2013-8-4,83,75,66,57,54,52,71,50,40,29.53,29.41,5,2,5,0.00
2013-8-5,71,69,62,64,62,55,81,78,67,29.44,29.23,7,2,7,0.00
2013-8-6,88,75,71,76,68,64,86,77,64,29.26,29.17,7,2,7,0.00
2013-8-7,90,80,72,79,72,65,92,79,60,29.29,29.17,8,2,8,0.00
2013-8-8,83,74,66,68,64,57,90,73,55,29.35,29.26,12,3,12,0.00
2013-8-9,84,78,68,65,62,56,78,60,47,29.41,29.35,5,2,5,0.00
2013-8-10,84,75,64,66,61,54,85,64,43,29.50,29.41,6,1,6,0.00
2013-8-11,90,74,59,64,60,54,87,64,43,29.47,29.38,7,2,7,0.00
2013-8-12,86,76,66,72,66,60,84,72,58,29.38,29.23,3,3,3,0.00
2013-8-13,78,68,58,64,54,45,87,63,40,29.47,29.29,3,3,3,0.00
2013-8-14,80,64,52,57,49,46,80,59,41,29.53,29.44,3,3,3,0.00
2013-8-15,78,76,74,58,52,49,57,45,41,29.50,29.41,6,2,6,0.00
2013-8-16,83,74,64,58,54,51,70,49,39,29.50,29.44,11,2,11,0.00
2013-8-17,83,70,57,60,55,52,85,62,41,29.53,29.47,5,2,5,0.00
2013-8-18,84,72,59,61,56,53,82,59,39,29.53,29.44,4,2,4,0.00
2013-8-19,90,74,61,67,62,56,84,67,44,29.47,29.38,1,0,1,0.00
2013-8-20,91,77,64,72,65,61,90,70,44,29.47,29.38,3,1,3,0.00
2013-8-21,94,79,67,73,67,63,90,69,43,29.44,29.35,3,2,3,0.00
2013-8-22,81,74,70,74,68,65,91,82,73,29.50,29.35,3,3,3,0.00
2013-8-23,86,74,66,70,66,58,94,76,52,29.47,29.41,12,4,12,0.00
2013-8-24,90,76,62,72,64,57,85,69,50,29.56,29.47,10,2,10,0.00
2013-8-25,92,78,67,71,65,61,85,66,45,29.59,29.50,12,3,12,0.00
2013-8-26,94,80,67,75,68,61,88,69,45,29.53,29.38,11,2,11,0.00
2013-8-27,97,83,72,77,70,65,89,68,46,29.41,29.26,17,4,17,0.00
2013-8-28,97,88,77,78,74,64,85,64,48,29.38,29.29,12,4,12,0.00
2013-8-29,86,78,70,76,71,68,92,80,66,29.41,29.32,10,2,10,0.00
2013-8-30,99,83,70,80,71,62,92,71,43,29.32,29.14,17,3,17,0.00
2013-8-31,98,81,70,78,69,60,87,69,50,29.20,29.09,10,2,10,0.00
2013-9-1,91,77,68,76,68,63,93,76,48,29.20,29.09,8,2,8,0.00
2013-9-2,88,77,65,66,60,53,70,55,42,29.32,29.20,12,2,12,0.00
2013-9-3,79,68,57,62,56,52,87,67,45,29.44,29.29,8,1,8,0.00
2013-9-4,61,59,57,55,54,53,88,84,79,29.41,29.38,2,0,2,0.00
2013-9-5,91,80,67,67,63,55,68,55,42,29.53,29.47,2,2,2,0.00
2013-9-6,93,74,60,68,59,51,76,60,41,29.53,29.35,2,2,2,0.00
2013-9-7,90,76,64,68,63,60,88,67,41,29.35,29.26,2,1,2,0.00
2013-9-8,87,79,71,73,69,65,91,74,57,29.35,29.23,3,0,4,0.00
2013-9-9,101,87,76,77,71,69,89,61,39,29.26,29.17,15,3,15,0.04
2013-9-10,101,85,72,72,66,60,78,54,29,29.38,29.26,19,4,19,0.04
2013-9-11,98,84,74,69,65,62,78,55,37,29.38,29.20,17,3,17,0.04
2013-9-12,88,75,64,71,62,45,90,67,32,29.29,29.17,17,2,17,0.17
2013-9-13,79,65,56,50,44,36,72,48,32,29.35,29.26,11,3,11,0.17
2013-9-14,80,62,49,50,43,39,73,53,32,29.35,29.20,10,2,10,0.17
2013-9-15,67,60,57,59,47,41,87,61,52,29.32,29.17,12,2,12,0.00
2013-9-16,77,64,55,58,52,43,90,67,41,29.50,29.32,12,4,12,0.00
2013-9-17,77,64,52,58,51,44,83,65,46,29.47,29.29,10,3,10,0.00
2013-9-18,91,75,64,70,62,52,80,66,47,29.29,29.12,14,4,14,0.00
2013-9-19,96,81,71,74,68,62,89,68,42,29.14,29.00,13,4,13,0.20
2013-9-20,74,69,61,68,61,49,92,76,51,29.12,29.03,12,4,12,0.04
2013-9-21,80,63,54,55,50,44,81,63,39,29.14,29.06,13,3,13,0.00
2013-9-22,82,63,50,54,46,43,75,56,35,29.23,29.14,13,2,13,0.00
2013-9-23,82,63,48,53,45,41,76,54,33,29.26,29.17,10,3,10,0.00
2013-9-24,80,65,50,56,48,42,75,54,40,29.17,29.06,11,3,11,0.00
2013-9-25,88,68,56,60,51,46,70,54,39,29.12,29.06,9,3,9,0.00
2013-9-26,90,70,56,59,52,44,78,55,33,29.23,29.12,9,2,9,0.00
2013-9-27,90,71,55,58,49,44,72,48,29,29.32,29.20,10,2,10,0.00
2013-9-28,84,72,61,63,56,47,83,59,43,29.23,29.12,15,4,17,0.42
2013-9-29,80,62,54,61,52,41,87,74,35,29.26,29.17,9,2,9,0.00
2013-9-30,84,65,50,61,50,44,82,59,35,29.20,29.09,11,3,11,0.00
2013-10-1,86,71,63,69,64,56,90,79,54,29.20,29.09,17,4,17,0.00
2013-10-2,87,72,66,71,66,62,95,81,49,29.26,29.14,7,2,7,0.00
2013-10-3,85,71,66,74,67,63,95,88,67,29.17,29.03,13,3,13,1.24
2013-10-4,88,74,66,75,68,63,96,83,61,29.17,29.09,10,2,10,0.00
2013-10-5,77,71,60,73,67,55,95,87,76,29.14,28.97,13,3,13,0.00
2013-10-6,66,54,49,55,44,37,85,69,52,29.03,28.94,18,4,18,0.00
2013-10-7,76,59,48,56,47,42,90,67,42,29.26,28.97,13,3,13,0.00
2013-10-8,83,64,50,58,47,42,81,57,34,29.35,29.26,10,2,10,0.00
2013-10-9,81,64,50,55,45,41,76,54,33,29.38,29.29,7,2,7,0.00
2013-10-10,56,54,52,44,43,42,71,67,61,29.32,29.29,2,0,2,0.00
2013-10-11,84,74,62,64,55,49,80,53,39,29.23,29.12,13,4,13,0.00
2013-10-12,80,66,56,64,53,39,82,64,39,29.38,29.14,10,3,10,0.00
2013-10-13,78,60,46,51,39,32,74,49,29,29.56,29.38,10,1,10,0.00
2013-10-14,75,58,43,47,37,31,69,47,32,29.53,29.23,12,2,12,0.00
2013-10-15,73,62,53,62,49,38,86,65,45,29.23,29.00,13,5,13,0.00
2013-10-16,53,51,50,42,39,38,67,63,59,29.14,29.09,8,4,8,0.00
2013-10-17,68,53,47,48,42,37,85,68,44,29.14,29.06,12,2,12,0.00
2013-10-18,62,50,45,44,38,34,79,66,49,29.20,29.06,15,3,15,0.00
2013-10-19,63,50,42,44,37,32,82,61,42,29.14,29.03,16,4,16,0.00
2013-10-20,75,56,42,48,39,32,73,53,37,29.06,28.94,17,4,17,0.00
2013-10-21,60,49,35,41,31,20,61,49,37,29.20,29.03,19,4,19,0.00
2013-10-22,44,38,33,39,30,20,84,72,55,29.20,29.03,11,2,11,0.09
2013-10-23,55,43,36,41,30,25,83,63,49,29.23,29.12,10,4,11,0.00
2013-10-24,49,40,36,32,25,20,74,55,46,29.50,29.23,15,4,15,0.00
2013-10-25,62,42,29,37,26,19,68,54,37,29.59,29.44,14,3,14,0.00
2013-10-26,65,50,38,39,30,22,57,45,36,29.29,29.11,17,6,17,0.04
2013-10-27,66,47,33,39,28,23,68,50,35,29.29,29.17,12,2,12,0.04
2013-10-28,71,52,37,45,31,23,63,47,33,29.47,29.23,14,3,14,0.04
2013-10-29,59,49,40,50,39,33,87,69,50,29.47,29.26,10,3,10,0.04
2013-10-30,65,59,53,64,57,50,96,93,87,29.26,28.97,14,3,14,1.74
2013-10-31,65,59,47,64,57,44,96,94,89,28.97,28.50,20,5,20,1.38
2013-11-1,55,48,44,47,44,40,93,86,73,28.97,28.73,18,4,18,0.04
2013-11-2,61,47,37,48,38,30,90,72,50,29.32,28.97,15,2,15,0.04
2013-11-3,65,46,33,47,33,28,82,61,44,29.44,29.32,12,3,12,0.04
2013-11-4,61,52,45,43,38,32,69,59,49,29.38,29.26,13,5,16,0.04
2013-11-5,56,54,52,53,49,43,91,84,69,29.41,29.14,14,5,14,0.16
2013-11-6,58,48,38,57,45,30,96,87,72,29.38,29.03,19,6,19,0.71
2013-11-7,60,42,32,41,31,26,80,66,48,29.47,29.38,15,3,15,0.04
2013-11-8,62,45,31,42,30,24,78,57,43,29.50,29.14,20,4,20,0.04
2013-11-9,72,56,45,47,36,29,67,49,36,29.38,29.09,23,7,23,0.04
2013-11-10,67,48,36,41,28,23,58,47,36,29.56,29.38,15,4,15,0.04
2013-11-11,53,42,28,35,28,16,74,59,50,29.68,29.29,10,4,10,0.03
2013-11-12,54,34,23,30,17,10,62,51,39,29.88,29.68,12,4,12,0.13
2013-11-13,49,34,21,28,16,8,62,47,37,29.79,29.35,18,5,18,0.04
2013-11-14,33,32,31,15,15,14,48,47,47,29.35,29.32,14,7,14,0.00
2013-11-17,70,60,46,66,54,38,86,80,70,29.06,28.47,20,9,20,0.33
2013-11-18,63,47,36,44,32,22,77,58,42,29.44,29.06,21,6,21,0.00
2013-11-19,60,42,29,36,25,20,68,52,37,29.50,29.38,8,3,8,0.00
2013-11-20,46,39,34,37,29,22,81,66,53,29.41,29.20,14,4,14,0.13
2013-11-21,50,47,43,47,42,37,91,84,76,29.38,29.23,6,2,6,0.08
2013-11-22,46,39,30,42,33,22,87,78,69,29.65,29.38,15,5,15,0.04
2013-11-23,42,27,18,27,14,2,74,57,47,29.85,29.62,15,5,15,0.00
2013-11-24,46,23,14,24,6,1,58,49,34,29.88,29.53,10,2,10,0.00
2013-11-25,35,30,23,20,14,6,59,52,47,29.53,29.26,16,5,16,0.00
2013-11-26,41,31,21,26,16,4,61,54,48,29.35,29.20,18,5,18,0.00
2013-11-27,47,28,16,22,9,0,50,43,35,29.44,29.35,14,4,14,0.00
2013-11-28,54,33,21,28,14,4,50,44,37,29.65,29.32,13,4,13,0.00
2013-11-29,50,32,18,26,14,5,57,48,39,29.76,29.53,11,3,11,0.00
2013-11-30,61,42,30,36,25,16,65,52,39,29.53,29.23,13,4,13,0.00
2013-12-1,64,43,30,39,28,21,73,55,37,29.26,29.12,12,2,12,0.00
2013-12-2,47,40,34,36,31,26,83,70,57,29.12,28.85,10,4,10,0.00
2013-12-3,51,45,40,49,42,36,95,90,83,28.88,28.82,11,4,11,0.00
2013-12-4,56,50,38,55,48,33,97,94,81,28.97,28.67,20,5,20,0.00
2013-12-5,38,28,24,33,15,10,81,58,54,29.44,28.97,20,6,20,0.00
2013-12-6,28,23,20,12,9,4,55,54,50,29.59,29.41,13,6,13,0.00
2013-12-7,40,26,16,17,6,-2,48,41,37,29.85,29.68,10,3,10,0.00
2013-12-8,27,23,16,19,11,0,74,61,48,29.68,29.14,18,5,18,0.00
2013-12-9,48,25,10,26,9,-7,72,52,41,29.41,29.14,18,7,18,0.00
2013-12-10,44,23,7,20,4,-10,50,43,38,29.44,29.23,24,5,24,0.00
2013-12-11,42,22,9,21,4,-12,53,45,36,29.74,29.41,17,4,17,0.00
2013-12-12,37,12,4,16,-8,-16,49,40,37,29.74,29.35,18,4,18,0.00
2013-12-13,45,31,20,26,17,5,77,56,43,29.35,29.17,10,3,10,0.00
2013-12-14,38,32,24,29,24,15,81,73,67,29.23,29.09,13,3,13,0.00
2013-12-15,29,22,17,17,9,6,69,58,51,29.29,29.20,13,4,13,0.00
2013-12-16,26,21,16,17,10,6,71,62,56,29.29,29.17,10,3,10,0.00
2013-12-17,55,32,24,35,20,12,74,61,46,29.35,29.20,17,6,17,0.17
2013-12-18,45,32,17,26,16,4,64,52,39,29.35,29.03,17,6,17,0.00
2013-12-19,48,41,36,40,34,26,91,75,64,29.09,28.94,12,4,12,0.29
2013-12-20,46,39,34,44,36,30,96,90,84,29.03,28.88,11,3,11,0.29
2013-12-21,35,33,31,32,29,27,89,84,82,29.03,28.76,10,3,10,0.37
2013-12-22,35,33,25,32,28,17,89,82,73,29.35,28.79,12,4,12,0.33
2013-12-23,40,21,8,22,11,-6,73,64,46,29.65,29.35,13,6,14,0.00
2013-12-24,32,16,4,12,1,-9,56,50,40,29.71,29.47,16,4,16,0.00
2013-12-25,32,27,21,24,18,7,76,69,55,29.47,29.32,13,6,13,0.00
2013-12-26,48,33,20,30,22,12,76,64,48,29.47,29.32,17,4,17,0.00
2013-12-27,57,39,26,35,28,22,87,67,43,29.44,29.29,13,4,13,0.00
2013-12-28,63,44,35,37,30,26,77,59,37,29.32,29.03,17,5,17,0.00
2013-12-29,39,26,8,28,18,-3,79,70,62,29.41,29.00,17,7,17,0.00
2013-12-30,33,14,4,13,1,-6,62,56,43,29.47,29.32,10,3,10,0.00
2013-12-31,34,20,12,18,7,1,68,59,49,29.53,29.32,15,4,15,0.00
2014-1-1,26,22,17,18,15,10,82,74,68,29.35,29.29,15,6,15,0.00
2014-1-2,28,16,8,14,5,-5,75,62,53,29.56,29.26,11,5,13,0.00